sensor_id;sensor_type;location;lat;lon;timestamp;temperature;humidity
46231;DHT22;31949;51.404;-0.038;2022-12-18T00:01:34;0.50;99.90
46231;DHT22;31949;51.404;-0.038;2022-12-18T00:04:04;0.50;99.90
46231;DHT22;31949;51.404;-0.038;2022-12-18T00:06:33;0.40;99.90
46231;DHT22;31949;51.404;-0.038;2022-12-18T00:09:02;0.40;99.90
46231;DHT22;31949;51.404;-0.038;2022-12-18T00:11:30;0.40;99.90
46231;DHT22;31949;51.404;-0.038;2022-12-18T00:13:59;0.50;99.90
46231;DHT22;31949;51.404;-0.038;2022-12-18T00:16:28;0.50;99.90
46231;DHT22;31949;51.404;-0.038;2022-12-18T00:18:57;0.50;99.90
46231;DHT22;31949;51.404;-0.038;2022-12-18T00:21:25;0.50;99.90
46231;DHT22;31949;51.404;-0.038;2022-12-18T00:23:54;0.50;99.90
46231;DHT22;31949;51.404;-0.038;2022-12-18T00:26:26;0.50;99.90
46231;DHT22;31949;51.404;-0.038;2022-12-18T00:29:02;0.40;99.90
46231;DHT22;31949;51.404;-0.038;2022-12-18T00:31:31;0.40;99.90
46231;DHT22;31949;51.404;-0.038;2022-12-18T00:34:00;0.40;99.90
46231;DHT22;31949;51.404;-0.038;2022-12-18T00:36:31;0.40;99.90
46231;DHT22;31949;51.404;-0.038;2022-12-18T00:39:00;0.40;99.90
46231;DHT22;31949;51.404;-0.038;2022-12-18T00:41:28;0.40;99.90
46231;DHT22;31949;51.404;-0.038;2022-12-18T00:44:15;0.40;99.90
46231;DHT22;31949;51.404;-0.038;2022-12-18T00:46:43;0.40;99.90
46231;DHT22;31949;51.404;-0.038;2022-12-18T00:49:11;0.30;99.90
46231;DHT22;31949;51.404;-0.038;2022-12-18T00:51:38;0.30;99.90
46231;DHT22;31949;51.404;-0.038;2022-12-18T00:54:06;0.30;99.90
46231;DHT22;31949;51.404;-0.038;2022-12-18T00:56:35;0.30;99.90
46231;DHT22;31949;51.404;-0.038;2022-12-18T00:59:14;0.30;99.90
46231;DHT22;31949;51.404;-0.038;2022-12-18T01:01:41;0.30;99.90
46231;DHT22;31949;51.404;-0.038;2022-12-18T01:04:09;0.30;99.90
46231;DHT22;31949;51.404;-0.038;2022-12-18T01:06:37;0.30;99.90
46231;DHT22;31949;51.404;-0.038;2022-12-18T01:09:04;0.20;99.90
46231;DHT22;31949;51.404;-0.038;2022-12-18T01:11:31;0.20;99.90
46231;DHT22;31949;51.404;-0.038;2022-12-18T01:14:00;0.20;99.90
46231;DHT22;31949;51.404;-0.038;2022-12-18T01:16:27;0.20;99.90
46231;DHT22;31949;51.404;-0.038;2022-12-18T01:18:56;0.20;99.90
46231;DHT22;31949;51.404;-0.038;2022-12-18T01:21:25;0.20;99.90
46231;DHT22;31949;51.404;-0.038;2022-12-18T01:23:54;0.20;99.90
46231;DHT22;31949;51.404;-0.038;2022-12-18T01:26:24;0.20;99.90
46231;DHT22;31949;51.404;-0.038;2022-12-18T01:28:54;0.10;99.90
46231;DHT22;31949;51.404;-0.038;2022-12-18T01:31:28;0.10;99.90
46231;DHT22;31949;51.404;-0.038;2022-12-18T01:33:56;0.10;99.90
46231;DHT22;31949;51.404;-0.038;2022-12-18T01:36:25;0.10;99.90
46231;DHT22;31949;51.404;-0.038;2022-12-18T01:38:53;0.10;99.90
46231;DHT22;31949;51.404;-0.038;2022-12-18T01:41:23;0.10;99.90
46231;DHT22;31949;51.404;-0.038;2022-12-18T01:43:54;0.10;99.90
46231;DHT22;31949;51.404;-0.038;2022-12-18T01:46:23;0.10;99.90
46231;DHT22;31949;51.404;-0.038;2022-12-18T01:49:01;0.10;99.90
46231;DHT22;31949;51.404;-0.038;2022-12-18T01:51:29;0.10;99.90
46231;DHT22;31949;51.404;-0.038;2022-12-18T01:53:59;0.00;99.90
46231;DHT22;31949;51.404;-0.038;2022-12-18T01:56:26;0.00;99.90
46231;DHT22;31949;51.404;-0.038;2022-12-18T01:59:05;0.00;99.90
46231;DHT22;31949;51.404;-0.038;2022-12-18T02:01:33;0.10;99.90
46231;DHT22;31949;51.404;-0.038;2022-12-18T02:04:33;0.10;99.90
46231;DHT22;31949;51.404;-0.038;2022-12-18T02:12:27;0.00;99.90
46231;DHT22;31949;51.404;-0.038;2022-12-18T02:17:52;0.00;99.90
46231;DHT22;31949;51.404;-0.038;2022-12-18T02:23:44;0.00;99.90
46231;DHT22;31949;51.404;-0.038;2022-12-18T02:29:13;0.00;99.90
46231;DHT22;31949;51.404;-0.038;2022-12-18T02:31:50;-0.10;99.90
46231;DHT22;31949;51.404;-0.038;2022-12-18T02:34:19;-0.10;99.90
46231;DHT22;31949;51.404;-0.038;2022-12-18T02:36:49;-0.20;99.90
46231;DHT22;31949;51.404;-0.038;2022-12-18T02:39:19;-0.20;99.90
46231;DHT22;31949;51.404;-0.038;2022-12-18T02:42:02;-0.20;99.90
46231;DHT22;31949;51.404;-0.038;2022-12-18T02:44:41;-0.20;99.90
46231;DHT22;31949;51.404;-0.038;2022-12-18T02:47:11;-0.20;99.90
46231;DHT22;31949;51.404;-0.038;2022-12-18T02:52:56;-0.20;99.90
46231;DHT22;31949;51.404;-0.038;2022-12-18T02:55:47;-0.20;99.90
46231;DHT22;31949;51.404;-0.038;2022-12-18T03:06:56;-0.20;99.90
46231;DHT22;31949;51.404;-0.038;2022-12-18T03:09:29;-0.10;99.90
46231;DHT22;31949;51.404;-0.038;2022-12-18T03:15:14;-0.20;99.90
46231;DHT22;31949;51.404;-0.038;2022-12-18T03:18:01;-0.20;99.90
46231;DHT22;31949;51.404;-0.038;2022-12-18T03:20:32;-0.20;99.90
46231;DHT22;31949;51.404;-0.038;2022-12-18T03:23:09;-0.20;99.90
46231;DHT22;31949;51.404;-0.038;2022-12-18T03:25:41;-0.20;99.90
46231;DHT22;31949;51.404;-0.038;2022-12-18T03:28:13;-0.20;99.90
46231;DHT22;31949;51.404;-0.038;2022-12-18T03:30:43;-0.20;99.90
46231;DHT22;31949;51.404;-0.038;2022-12-18T03:33:37;-0.20;99.90
46231;DHT22;31949;51.404;-0.038;2022-12-18T03:36:06;-0.30;99.90
46231;DHT22;31949;51.404;-0.038;2022-12-18T03:38:34;-0.30;99.90
46231;DHT22;31949;51.404;-0.038;2022-12-18T03:46:48;-0.30;99.90
46231;DHT22;31949;51.404;-0.038;2022-12-18T03:52:04;-0.20;99.90
46231;DHT22;31949;51.404;-0.038;2022-12-18T03:54:33;-0.20;99.90
46231;DHT22;31949;51.404;-0.038;2022-12-18T03:57:21;-0.20;99.90
46231;DHT22;31949;51.404;-0.038;2022-12-18T03:59:56;-0.20;99.90
46231;DHT22;31949;51.404;-0.038;2022-12-18T04:02:31;-0.20;99.90
46231;DHT22;31949;51.404;-0.038;2022-12-18T04:05:03;-0.20;99.90
46231;DHT22;31949;51.404;-0.038;2022-12-18T04:07:33;-0.20;99.90
46231;DHT22;31949;51.404;-0.038;2022-12-18T04:10:02;-0.20;99.90
46231;DHT22;31949;51.404;-0.038;2022-12-18T04:12:30;-0.10;99.90
46231;DHT22;31949;51.404;-0.038;2022-12-18T04:14:58;-0.10;99.90
46231;DHT22;31949;51.404;-0.038;2022-12-18T04:17:25;-0.10;99.90
46231;DHT22;31949;51.404;-0.038;2022-12-18T04:19:52;-0.10;99.90
46231;DHT22;31949;51.404;-0.038;2022-12-18T04:22:20;-0.10;99.90
46231;DHT22;31949;51.404;-0.038;2022-12-18T04:24:52;-0.10;99.90
46231;DHT22;31949;51.404;-0.038;2022-12-18T04:27:28;-0.10;99.90
46231;DHT22;31949;51.404;-0.038;2022-12-18T04:29:58;-0.10;99.90
46231;DHT22;31949;51.404;-0.038;2022-12-18T04:32:25;-0.10;99.90
46231;DHT22;31949;51.404;-0.038;2022-12-18T04:34:52;-0.10;99.90
46231;DHT22;31949;51.404;-0.038;2022-12-18T04:37:20;0.00;99.90
46231;DHT22;31949;51.404;-0.038;2022-12-18T04:39:49;0.00;99.90
46231;DHT22;31949;51.404;-0.038;2022-12-18T04:42:23;0.00;99.90
46231;DHT22;31949;51.404;-0.038;2022-12-18T04:44:50;0.00;99.90
46231;DHT22;31949;51.404;-0.038;2022-12-18T04:47:17;0.10;99.90
46231;DHT22;31949;51.404;-0.038;2022-12-18T04:49:44;0.10;99.90
46231;DHT22;31949;51.404;-0.038;2022-12-18T04:52:12;0.10;99.90
46231;DHT22;31949;51.404;-0.038;2022-12-18T04:54:39;0.10;99.90
46231;DHT22;31949;51.404;-0.038;2022-12-18T04:57:06;0.20;99.90
46231;DHT22;31949;51.404;-0.038;2022-12-18T04:59:33;0.20;99.90
46231;DHT22;31949;51.404;-0.038;2022-12-18T05:02:00;0.20;99.90
46231;DHT22;31949;51.404;-0.038;2022-12-18T05:04:27;0.20;99.90
46231;DHT22;31949;51.404;-0.038;2022-12-18T05:06:55;0.30;99.90
46231;DHT22;31949;51.404;-0.038;2022-12-18T05:09:22;0.30;99.90
46231;DHT22;31949;51.404;-0.038;2022-12-18T05:11:49;0.30;99.90
46231;DHT22;31949;51.404;-0.038;2022-12-18T05:14:17;0.40;99.90
46231;DHT22;31949;51.404;-0.038;2022-12-18T05:16:44;0.40;99.90
46231;DHT22;31949;51.404;-0.038;2022-12-18T05:19:11;0.40;99.90
46231;DHT22;31949;51.404;-0.038;2022-12-18T05:21:39;0.40;99.90
46231;DHT22;31949;51.404;-0.038;2022-12-18T05:24:06;0.40;99.90
46231;DHT22;31949;51.404;-0.038;2022-12-18T05:26:33;0.50;99.90
46231;DHT22;31949;51.404;-0.038;2022-12-18T05:29:00;0.50;99.90
46231;DHT22;31949;51.404;-0.038;2022-12-18T05:31:28;0.50;99.90
46231;DHT22;31949;51.404;-0.038;2022-12-18T05:33:58;0.50;99.90
46231;DHT22;31949;51.404;-0.038;2022-12-18T05:36:25;0.60;99.90
46231;DHT22;31949;51.404;-0.038;2022-12-18T05:38:52;0.60;99.90
46231;DHT22;31949;51.404;-0.038;2022-12-18T05:41:19;0.60;99.90
46231;DHT22;31949;51.404;-0.038;2022-12-18T05:43:47;0.70;99.90
46231;DHT22;31949;51.404;-0.038;2022-12-18T05:46:15;0.70;99.90
46231;DHT22;31949;51.404;-0.038;2022-12-18T05:48:45;0.70;99.90
46231;DHT22;31949;51.404;-0.038;2022-12-18T05:51:15;0.70;99.90
46231;DHT22;31949;51.404;-0.038;2022-12-18T05:53:43;0.80;99.90
46231;DHT22;31949;51.404;-0.038;2022-12-18T05:56:17;0.80;99.90
46231;DHT22;31949;51.404;-0.038;2022-12-18T05:58:45;0.80;99.90
46231;DHT22;31949;51.404;-0.038;2022-12-18T06:01:19;0.90;99.90
46231;DHT22;31949;51.404;-0.038;2022-12-18T06:03:46;0.90;99.90
46231;DHT22;31949;51.404;-0.038;2022-12-18T06:08:41;0.90;99.90
46231;DHT22;31949;51.404;-0.038;2022-12-18T06:11:12;1.00;99.90
46231;DHT22;31949;51.404;-0.038;2022-12-18T06:13:40;1.00;99.90
46231;DHT22;31949;51.404;-0.038;2022-12-18T06:16:08;1.00;99.90
46231;DHT22;31949;51.404;-0.038;2022-12-18T06:18:35;1.00;99.90
46231;DHT22;31949;51.404;-0.038;2022-12-18T06:21:02;1.10;99.90
46231;DHT22;31949;51.404;-0.038;2022-12-18T06:23:29;1.10;99.90
46231;DHT22;31949;51.404;-0.038;2022-12-18T06:25:56;1.10;99.90
46231;DHT22;31949;51.404;-0.038;2022-12-18T06:28:24;1.20;99.90
46231;DHT22;31949;51.404;-0.038;2022-12-18T06:30:51;1.20;99.90
46231;DHT22;31949;51.404;-0.038;2022-12-18T06:33:18;1.20;99.90
46231;DHT22;31949;51.404;-0.038;2022-12-18T06:35:45;1.20;99.90
46231;DHT22;31949;51.404;-0.038;2022-12-18T06:38:12;1.20;99.90
46231;DHT22;31949;51.404;-0.038;2022-12-18T06:40:40;1.30;99.90
46231;DHT22;31949;51.404;-0.038;2022-12-18T06:43:07;1.30;99.90
46231;DHT22;31949;51.404;-0.038;2022-12-18T06:45:34;1.30;99.90
46231;DHT22;31949;51.404;-0.038;2022-12-18T06:48:01;1.30;99.90
46231;DHT22;31949;51.404;-0.038;2022-12-18T06:50:29;1.30;99.90
46231;DHT22;31949;51.404;-0.038;2022-12-18T06:52:56;1.30;99.90
46231;DHT22;31949;51.404;-0.038;2022-12-18T06:55:23;1.40;99.90
46231;DHT22;31949;51.404;-0.038;2022-12-18T06:57:51;1.40;99.90
46231;DHT22;31949;51.404;-0.038;2022-12-18T07:00:18;1.40;99.90
46231;DHT22;31949;51.404;-0.038;2022-12-18T07:02:45;1.40;99.90
46231;DHT22;31949;51.404;-0.038;2022-12-18T07:05:13;1.40;99.90
46231;DHT22;31949;51.404;-0.038;2022-12-18T07:07:40;1.50;99.90
46231;DHT22;31949;51.404;-0.038;2022-12-18T07:10:07;1.50;99.90
46231;DHT22;31949;51.404;-0.038;2022-12-18T07:12:34;1.50;99.90
46231;DHT22;31949;51.404;-0.038;2022-12-18T07:15:02;1.50;99.90
46231;DHT22;31949;51.404;-0.038;2022-12-18T07:17:30;1.50;99.90
46231;DHT22;31949;51.404;-0.038;2022-12-18T07:19:57;1.50;99.90
46231;DHT22;31949;51.404;-0.038;2022-12-18T07:22:25;1.60;99.90
46231;DHT22;31949;51.404;-0.038;2022-12-18T07:24:53;1.60;99.90
46231;DHT22;31949;51.404;-0.038;2022-12-18T07:27:20;1.60;99.90
46231;DHT22;31949;51.404;-0.038;2022-12-18T07:29:47;1.60;99.90
46231;DHT22;31949;51.404;-0.038;2022-12-18T07:32:14;1.60;99.90
46231;DHT22;31949;51.404;-0.038;2022-12-18T07:34:41;1.60;99.90
46231;DHT22;31949;51.404;-0.038;2022-12-18T07:37:09;1.70;99.90
46231;DHT22;31949;51.404;-0.038;2022-12-18T07:39:36;1.70;99.90
46231;DHT22;31949;51.404;-0.038;2022-12-18T07:42:03;1.70;99.90
46231;DHT22;31949;51.404;-0.038;2022-12-18T07:44:50;1.70;99.90
46231;DHT22;31949;51.404;-0.038;2022-12-18T07:47:17;1.70;99.90
46231;DHT22;31949;51.404;-0.038;2022-12-18T07:49:44;1.80;99.90
46231;DHT22;31949;51.404;-0.038;2022-12-18T07:52:11;1.80;99.90
46231;DHT22;31949;51.404;-0.038;2022-12-18T07:54:39;1.80;99.90
46231;DHT22;31949;51.404;-0.038;2022-12-18T07:57:07;1.80;99.90
46231;DHT22;31949;51.404;-0.038;2022-12-18T07:59:53;1.80;99.90
46231;DHT22;31949;51.404;-0.038;2022-12-18T08:02:20;1.80;99.90
46231;DHT22;31949;51.404;-0.038;2022-12-18T08:04:47;1.90;99.90
46231;DHT22;31949;51.404;-0.038;2022-12-18T08:07:14;1.90;99.90
46231;DHT22;31949;51.404;-0.038;2022-12-18T08:09:41;1.80;99.90
46231;DHT22;31949;51.404;-0.038;2022-12-18T08:12:09;1.90;99.90
46231;DHT22;31949;51.404;-0.038;2022-12-18T08:14:36;1.90;99.90
46231;DHT22;31949;51.404;-0.038;2022-12-18T08:17:03;1.90;99.90
46231;DHT22;31949;51.404;-0.038;2022-12-18T08:19:30;1.90;99.90
46231;DHT22;31949;51.404;-0.038;2022-12-18T08:21:57;1.90;99.90
46231;DHT22;31949;51.404;-0.038;2022-12-18T08:24:25;1.90;99.90
46231;DHT22;31949;51.404;-0.038;2022-12-18T08:26:53;1.90;99.90
46231;DHT22;31949;51.404;-0.038;2022-12-18T08:29:40;2.00;99.90
46231;DHT22;31949;51.404;-0.038;2022-12-18T08:32:07;2.00;99.90
46231;DHT22;31949;51.404;-0.038;2022-12-18T08:34:35;2.00;99.90
46231;DHT22;31949;51.404;-0.038;2022-12-18T08:37:02;2.00;99.90
46231;DHT22;31949;51.404;-0.038;2022-12-18T08:39:29;2.00;99.90
46231;DHT22;31949;51.404;-0.038;2022-12-18T08:41:56;2.10;99.90
46231;DHT22;31949;51.404;-0.038;2022-12-18T08:44:42;2.10;99.90
46231;DHT22;31949;51.404;-0.038;2022-12-18T08:47:09;2.10;99.90
46231;DHT22;31949;51.404;-0.038;2022-12-18T08:49:36;2.10;99.90
46231;DHT22;31949;51.404;-0.038;2022-12-18T08:52:03;2.20;99.90
46231;DHT22;31949;51.404;-0.038;2022-12-18T08:54:30;2.20;99.90
46231;DHT22;31949;51.404;-0.038;2022-12-18T08:56:58;2.20;99.90
46231;DHT22;31949;51.404;-0.038;2022-12-18T08:59:25;2.20;99.90
46231;DHT22;31949;51.404;-0.038;2022-12-18T09:01:53;2.20;99.90
46231;DHT22;31949;51.404;-0.038;2022-12-18T09:04:22;2.20;99.90
46231;DHT22;31949;51.404;-0.038;2022-12-18T09:06:49;2.20;99.90
46231;DHT22;31949;51.404;-0.038;2022-12-18T09:09:16;2.20;99.90
46231;DHT22;31949;51.404;-0.038;2022-12-18T09:11:43;2.20;99.90
46231;DHT22;31949;51.404;-0.038;2022-12-18T09:14:11;2.30;99.90
46231;DHT22;31949;51.404;-0.038;2022-12-18T09:16:38;2.30;99.90
46231;DHT22;31949;51.404;-0.038;2022-12-18T09:19:05;2.40;99.90
46231;DHT22;31949;51.404;-0.038;2022-12-18T09:21:34;2.30;99.90
46231;DHT22;31949;51.404;-0.038;2022-12-18T09:24:04;2.40;99.90
46231;DHT22;31949;51.404;-0.038;2022-12-18T09:26:35;2.40;99.90
46231;DHT22;31949;51.404;-0.038;2022-12-18T09:29:02;2.50;99.90
46231;DHT22;31949;51.404;-0.038;2022-12-18T09:31:29;2.50;99.90
46231;DHT22;31949;51.404;-0.038;2022-12-18T09:33:57;2.50;99.90
46231;DHT22;31949;51.404;-0.038;2022-12-18T09:36:24;2.50;99.90
46231;DHT22;31949;51.404;-0.038;2022-12-18T09:38:51;2.50;99.90
46231;DHT22;31949;51.404;-0.038;2022-12-18T09:44:36;2.50;99.90
46231;DHT22;31949;51.404;-0.038;2022-12-18T09:47:24;2.50;99.90
46231;DHT22;31949;51.404;-0.038;2022-12-18T09:49:57;2.60;99.90
46231;DHT22;31949;51.404;-0.038;2022-12-18T09:52:26;2.60;99.90
46231;DHT22;31949;51.404;-0.038;2022-12-18T09:57:47;2.60;99.90
46231;DHT22;31949;51.404;-0.038;2022-12-18T10:00:17;2.70;99.90
46231;DHT22;31949;51.404;-0.038;2022-12-18T10:02:46;2.70;99.90
46231;DHT22;31949;51.404;-0.038;2022-12-18T10:05:17;2.70;99.90
46231;DHT22;31949;51.404;-0.038;2022-12-18T10:10:26;2.70;99.90
46231;DHT22;31949;51.404;-0.038;2022-12-18T10:27:18;2.90;99.90
46231;DHT22;31949;51.404;-0.038;2022-12-18T10:29:46;2.90;99.90
46231;DHT22;31949;51.404;-0.038;2022-12-18T10:32:17;2.90;99.90
46231;DHT22;31949;51.404;-0.038;2022-12-18T10:34:49;3.00;99.90
46231;DHT22;31949;51.404;-0.038;2022-12-18T10:37:28;3.00;99.90
46231;DHT22;31949;51.404;-0.038;2022-12-18T10:40:11;3.00;99.90
46231;DHT22;31949;51.404;-0.038;2022-12-18T10:43:14;3.10;99.90
46231;DHT22;31949;51.404;-0.038;2022-12-18T10:45:39;3.10;99.90
46231;DHT22;31949;51.404;-0.038;2022-12-18T10:48:21;3.10;99.90
46231;DHT22;31949;51.404;-0.038;2022-12-18T10:50:50;3.10;99.90
46231;DHT22;31949;51.404;-0.038;2022-12-18T10:53:40;3.20;99.90
46231;DHT22;31949;51.404;-0.038;2022-12-18T10:56:09;3.20;99.90
46231;DHT22;31949;51.404;-0.038;2022-12-18T10:58:38;3.20;99.90
46231;DHT22;31949;51.404;-0.038;2022-12-18T11:01:15;3.20;99.90
46231;DHT22;31949;51.404;-0.038;2022-12-18T11:06:22;3.30;99.90
46231;DHT22;31949;51.404;-0.038;2022-12-18T11:09:26;3.30;99.90
46231;DHT22;31949;51.404;-0.038;2022-12-18T11:11:57;3.30;99.90
46231;DHT22;31949;51.404;-0.038;2022-12-18T11:14:29;3.30;99.90
46231;DHT22;31949;51.404;-0.038;2022-12-18T11:16:59;3.30;99.90
46231;DHT22;31949;51.404;-0.038;2022-12-18T11:19:53;3.40;99.90
46231;DHT22;31949;51.404;-0.038;2022-12-18T11:22:27;3.40;99.90
46231;DHT22;31949;51.404;-0.038;2022-12-18T11:25:32;3.40;99.90
46231;DHT22;31949;51.404;-0.038;2022-12-18T11:28:24;3.40;99.90
46231;DHT22;31949;51.404;-0.038;2022-12-18T11:31:23;3.40;99.90
46231;DHT22;31949;51.404;-0.038;2022-12-18T11:34:09;3.50;99.90
46231;DHT22;31949;51.404;-0.038;2022-12-18T11:36:55;3.50;99.90
46231;DHT22;31949;51.404;-0.038;2022-12-18T11:39:45;3.50;99.90
46231;DHT22;31949;51.404;-0.038;2022-12-18T11:42:24;3.50;99.90
46231;DHT22;31949;51.404;-0.038;2022-12-18T11:44:58;3.50;99.90
46231;DHT22;31949;51.404;-0.038;2022-12-18T11:50:54;3.50;99.90
46231;DHT22;31949;51.404;-0.038;2022-12-18T11:53:24;3.50;99.90
46231;DHT22;31949;51.404;-0.038;2022-12-18T12:01:50;3.50;99.90
46231;DHT22;31949;51.404;-0.038;2022-12-18T12:04:45;3.50;99.90
46231;DHT22;31949;51.404;-0.038;2022-12-18T12:26:29;3.50;99.90
46231;DHT22;31949;51.404;-0.038;2022-12-18T12:29:09;3.50;99.90
46231;DHT22;31949;51.404;-0.038;2022-12-18T12:40:05;3.50;99.90
46231;DHT22;31949;51.404;-0.038;2022-12-18T12:43:02;3.60;99.90
46231;DHT22;31949;51.404;-0.038;2022-12-18T12:45:53;3.60;99.90
46231;DHT22;31949;51.404;-0.038;2022-12-18T12:48:33;3.60;99.90
46231;DHT22;31949;51.404;-0.038;2022-12-18T12:51:08;3.60;99.90
46231;DHT22;31949;51.404;-0.038;2022-12-18T12:53:38;3.60;99.90
46231;DHT22;31949;51.404;-0.038;2022-12-18T12:56:10;3.60;99.90
46231;DHT22;31949;51.404;-0.038;2022-12-18T13:04:56;3.60;99.90
46231;DHT22;31949;51.404;-0.038;2022-12-18T13:06:59;3.70;99.90
46231;DHT22;31949;51.404;-0.038;2022-12-18T13:09:32;3.70;99.90
46231;DHT22;31949;51.404;-0.038;2022-12-18T13:12:04;3.60;99.90
46231;DHT22;31949;51.404;-0.038;2022-12-18T13:15:21;3.60;99.90
46231;DHT22;31949;51.404;-0.038;2022-12-18T13:17:53;3.60;99.90
46231;DHT22;31949;51.404;-0.038;2022-12-18T13:20:34;3.60;99.90
46231;DHT22;31949;51.404;-0.038;2022-12-18T13:34:20;3.60;99.90
46231;DHT22;31949;51.404;-0.038;2022-12-18T13:36:56;3.60;99.90
46231;DHT22;31949;51.404;-0.038;2022-12-18T13:39:32;3.60;99.90
46231;DHT22;31949;51.404;-0.038;2022-12-18T13:44:39;3.60;99.90
46231;DHT22;31949;51.404;-0.038;2022-12-18T13:47:27;3.70;99.90
46231;DHT22;31949;51.404;-0.038;2022-12-18T13:49:58;3.70;99.90
46231;DHT22;31949;51.404;-0.038;2022-12-18T13:52:28;3.70;99.90
46231;DHT22;31949;51.404;-0.038;2022-12-18T13:55:02;3.60;99.90
46231;DHT22;31949;51.404;-0.038;2022-12-18T13:57:35;3.60;99.90
46231;DHT22;31949;51.404;-0.038;2022-12-18T14:00:34;3.60;99.90
46231;DHT22;31949;51.404;-0.038;2022-12-18T14:03:23;3.70;99.90
46231;DHT22;31949;51.404;-0.038;2022-12-18T14:06:00;3.70;99.90
46231;DHT22;31949;51.404;-0.038;2022-12-18T14:08:33;3.60;99.90
46231;DHT22;31949;51.404;-0.038;2022-12-18T14:11:04;3.60;99.90
46231;DHT22;31949;51.404;-0.038;2022-12-18T14:13:38;3.60;99.90
46231;DHT22;31949;51.404;-0.038;2022-12-18T14:16:07;3.60;99.90
46231;DHT22;31949;51.404;-0.038;2022-12-18T14:21:05;3.70;99.90
46231;DHT22;31949;51.404;-0.038;2022-12-18T14:23:37;3.70;99.90
46231;DHT22;31949;51.404;-0.038;2022-12-18T14:26:27;3.70;99.90
46231;DHT22;31949;51.404;-0.038;2022-12-18T14:28:58;3.80;99.90
46231;DHT22;31949;51.404;-0.038;2022-12-18T14:31:30;3.70;99.90
46231;DHT22;31949;51.404;-0.038;2022-12-18T14:33:57;3.70;99.90
46231;DHT22;31949;51.404;-0.038;2022-12-18T14:36:27;3.70;99.90
46231;DHT22;31949;51.404;-0.038;2022-12-18T14:38:56;3.70;99.90
46231;DHT22;31949;51.404;-0.038;2022-12-18T14:41:24;3.70;99.90
46231;DHT22;31949;51.404;-0.038;2022-12-18T14:43:53;3.70;99.90
46231;DHT22;31949;51.404;-0.038;2022-12-18T14:48:55;3.70;99.90
46231;DHT22;31949;51.404;-0.038;2022-12-18T14:51:25;3.80;99.90
46231;DHT22;31949;51.404;-0.038;2022-12-18T14:53:59;3.80;99.90
46231;DHT22;31949;51.404;-0.038;2022-12-18T14:56:41;3.80;99.90
46231;DHT22;31949;51.404;-0.038;2022-12-18T14:59:21;3.80;99.90
46231;DHT22;31949;51.404;-0.038;2022-12-18T15:07:14;3.90;99.90
46231;DHT22;31949;51.404;-0.038;2022-12-18T15:13:08;3.90;99.90
46231;DHT22;31949;51.404;-0.038;2022-12-18T15:21:09;4.00;99.90
46231;DHT22;31949;51.404;-0.038;2022-12-18T15:26:13;4.00;99.90
46231;DHT22;31949;51.404;-0.038;2022-12-18T15:28:57;4.10;99.90
46231;DHT22;31949;51.404;-0.038;2022-12-18T15:31:34;4.10;99.90
46231;DHT22;31949;51.404;-0.038;2022-12-18T15:36:35;4.20;99.90
46231;DHT22;31949;51.404;-0.038;2022-12-18T15:39:04;4.20;99.90
46231;DHT22;31949;51.404;-0.038;2022-12-18T15:41:34;4.20;99.90
46231;DHT22;31949;51.404;-0.038;2022-12-18T15:44:15;4.30;99.90
46231;DHT22;31949;51.404;-0.038;2022-12-18T15:46:48;4.30;99.90
46231;DHT22;31949;51.404;-0.038;2022-12-18T15:49:15;4.30;99.90
46231;DHT22;31949;51.404;-0.038;2022-12-18T15:51:42;4.30;99.90
46231;DHT22;31949;51.404;-0.038;2022-12-18T15:54:13;4.30;99.90
46231;DHT22;31949;51.404;-0.038;2022-12-18T15:56:42;4.40;99.90
46231;DHT22;31949;51.404;-0.038;2022-12-18T15:59:28;4.40;99.90
46231;DHT22;31949;51.404;-0.038;2022-12-18T16:01:56;4.50;99.90
46231;DHT22;31949;51.404;-0.038;2022-12-18T16:04:23;4.50;99.90
46231;DHT22;31949;51.404;-0.038;2022-12-18T16:06:52;4.50;99.90
46231;DHT22;31949;51.404;-0.038;2022-12-18T16:09:39;4.60;99.90
46231;DHT22;31949;51.404;-0.038;2022-12-18T16:12:15;4.60;99.90
46231;DHT22;31949;51.404;-0.038;2022-12-18T16:14:44;4.60;99.90
46231;DHT22;31949;51.404;-0.038;2022-12-18T16:17:13;4.60;99.90
46231;DHT22;31949;51.404;-0.038;2022-12-18T16:19:40;4.70;99.90
46231;DHT22;31949;51.404;-0.038;2022-12-18T16:22:19;4.70;99.90
46231;DHT22;31949;51.404;-0.038;2022-12-18T16:24:48;4.70;99.90
46231;DHT22;31949;51.404;-0.038;2022-12-18T16:27:16;4.80;99.90
46231;DHT22;31949;51.404;-0.038;2022-12-18T16:29:43;4.90;99.90
46231;DHT22;31949;51.404;-0.038;2022-12-18T16:32:16;4.90;99.90
46231;DHT22;31949;51.404;-0.038;2022-12-18T16:34:43;5.00;99.90
46231;DHT22;31949;51.404;-0.038;2022-12-18T16:37:12;5.00;99.90
46231;DHT22;31949;51.404;-0.038;2022-12-18T16:39:41;5.00;99.90
46231;DHT22;31949;51.404;-0.038;2022-12-18T16:42:19;5.00;99.90
46231;DHT22;31949;51.404;-0.038;2022-12-18T16:44:47;5.10;99.90
46231;DHT22;31949;51.404;-0.038;2022-12-18T16:47:16;5.20;99.90
46231;DHT22;31949;51.404;-0.038;2022-12-18T16:49:44;5.20;99.90
46231;DHT22;31949;51.404;-0.038;2022-12-18T16:52:12;5.20;99.90
46231;DHT22;31949;51.404;-0.038;2022-12-18T16:54:39;5.20;99.90
46231;DHT22;31949;51.404;-0.038;2022-12-18T16:57:09;5.30;99.90
46231;DHT22;31949;51.404;-0.038;2022-12-18T16:59:38;5.40;99.90
46231;DHT22;31949;51.404;-0.038;2022-12-18T17:02:28;5.50;99.90
46231;DHT22;31949;51.404;-0.038;2022-12-18T17:04:57;5.50;99.90
46231;DHT22;31949;51.404;-0.038;2022-12-18T17:07:25;5.60;99.90
46231;DHT22;31949;51.404;-0.038;2022-12-18T17:09:54;5.50;99.90
46231;DHT22;31949;51.404;-0.038;2022-12-18T17:12:22;5.60;99.90
46231;DHT22;31949;51.404;-0.038;2022-12-18T17:14:49;5.60;99.90
46231;DHT22;31949;51.404;-0.038;2022-12-18T17:17:17;5.60;99.90
46231;DHT22;31949;51.404;-0.038;2022-12-18T17:19:49;5.70;99.90
46231;DHT22;31949;51.404;-0.038;2022-12-18T17:22:16;5.70;99.90
46231;DHT22;31949;51.404;-0.038;2022-12-18T17:24:44;5.80;99.90
46231;DHT22;31949;51.404;-0.038;2022-12-18T17:27:12;5.80;99.90
46231;DHT22;31949;51.404;-0.038;2022-12-18T17:29:39;5.90;99.90
46231;DHT22;31949;51.404;-0.038;2022-12-18T17:32:13;5.90;99.90
46231;DHT22;31949;51.404;-0.038;2022-12-18T17:34:40;5.90;99.90
46231;DHT22;31949;51.404;-0.038;2022-12-18T17:37:08;5.90;99.90
46231;DHT22;31949;51.404;-0.038;2022-12-18T17:39:35;6.00;99.90
46231;DHT22;31949;51.404;-0.038;2022-12-18T17:42:02;6.00;99.90
46231;DHT22;31949;51.404;-0.038;2022-12-18T17:44:31;6.10;99.90
46231;DHT22;31949;51.404;-0.038;2022-12-18T17:47:00;6.10;99.90
46231;DHT22;31949;51.404;-0.038;2022-12-18T17:49:27;6.10;99.90
46231;DHT22;31949;51.404;-0.038;2022-12-18T17:51:55;6.20;99.90
46231;DHT22;31949;51.404;-0.038;2022-12-18T17:54:22;6.20;99.90
46231;DHT22;31949;51.404;-0.038;2022-12-18T17:56:49;6.20;99.90
46231;DHT22;31949;51.404;-0.038;2022-12-18T17:59:16;6.20;99.90
46231;DHT22;31949;51.404;-0.038;2022-12-18T18:01:44;6.20;99.90
46231;DHT22;31949;51.404;-0.038;2022-12-18T18:04:13;6.20;99.90
46231;DHT22;31949;51.404;-0.038;2022-12-18T18:06:40;6.30;99.90
46231;DHT22;31949;51.404;-0.038;2022-12-18T18:09:07;6.30;99.90
46231;DHT22;31949;51.404;-0.038;2022-12-18T18:11:43;6.40;99.90
46231;DHT22;31949;51.404;-0.038;2022-12-18T18:14:30;6.40;99.90
46231;DHT22;31949;51.404;-0.038;2022-12-18T18:16:58;6.40;99.90
46231;DHT22;31949;51.404;-0.038;2022-12-18T18:19:31;6.50;99.90
46231;DHT22;31949;51.404;-0.038;2022-12-18T18:21:59;6.40;99.90
46231;DHT22;31949;51.404;-0.038;2022-12-18T18:24:29;6.50;99.90